Minerva Zen — SVBN3 — position and weather

sailwx.info

Track history (hours):
 
Tides and Currents Weather Stations Pressure Air Temp Water Temp Dewpoint Dewpoint Depression Visibility Wind Speed Wind Dir Waves Ship Positions

Minerva Zen

Last reported at 2015-Jul-29 12:33 UTC. Time now 2015-Jul-31 17:24 UTC.
Position N 25°40' W 079°37'.

Length 183 m; draft 13 m.

Type: Ship. MMSI: 241190000.

Date/timePositionNaut miles runAvg speedWind from/ knotsBaromVisibWave heightAir tempDewpointWater temp
2015-Jul-29 12:33N 25°40' W 079°37'1110.4
2015-Jul-29 11:28N 25°50' W 079°30'1010.9
2015-Jul-29 10:33N 25°58' W 079°24'1111.3
2015-Jul-29 09:33N 26°08' W 079°17'1211.9
2015-Jul-29 08:31N 26°18' W 079°10'1212.7
2015-Jul-29 07:33N 26°17' W 078°57'1413.6
2015-Jul-29 06:32N 26°13' W 078°42'1613.4
2015-Jul-29 05:20N 26°08' W 078°25'1012.9
2015-Jul-29 04:33N 26°05' W 078°14'1312.9
2015-Jul-29 03:33N 26°01' W 078°01'1313.4
2015-Jul-29 02:33N 25°56' W 077°47'  
2015-Jul-20 02:21N 35°45' W 026°47'3612.7
2015-Jul-19 23:32N 35°45' W 026°03'3812.8
2015-Jul-19 20:31N 35°44' W 025°16'1412.5
2015-Jul-19 19:24N 35°43' W 024°59'1112.4
2015-Jul-19 18:33N 35°42' W 024°46'1312.7
2015-Jul-19 17:34N 35°42' W 024°30'1312.6
2015-Jul-19 16:33N 35°41' W 024°15'1312.9
2015-Jul-19 15:33N 35°40' W 023°59'1312.8
2015-Jul-19 14:34N 35°39' W 023°43'1312.6
2015-Jul-19 13:34N 35°38' W 023°28'  
Track history (hours):
 
Tides and Currents Weather Stations Pressure Air Temp Water Temp Dewpoint Dewpoint Depression Visibility Wind Speed Wind Dir Waves Ship Positions

Minerva Zen

Last reported at 2015-Jul-29 12:33 UTC. Time now 2015-Jul-31 17:24 UTC.
Position N 25°40' W 079°37'.

Length 183 m; draft 13 m.

Type: Ship. MMSI: 241190000.

Date/timePositionNaut miles runAvg speedWind from/ knotsBaromVisibWave heightAir tempDewpointWater temp
2015-Jul-29 12:33N 25°40' W 079°37'1110.4
2015-Jul-29 11:28N 25°50' W 079°30'1010.9
2015-Jul-29 10:33N 25°58' W 079°24'1111.3
2015-Jul-29 09:33N 26°08' W 079°17'1211.9
2015-Jul-29 08:31N 26°18' W 079°10'1212.7
2015-Jul-29 07:33N 26°17' W 078°57'1413.6
2015-Jul-29 06:32N 26°13' W 078°42'1613.4
2015-Jul-29 05:20N 26°08' W 078°25'1012.9
2015-Jul-29 04:33N 26°05' W 078°14'1312.9
2015-Jul-29 03:33N 26°01' W 078°01'1313.4
2015-Jul-29 02:33N 25°56' W 077°47'  
2015-Jul-20 02:21N 35°45' W 026°47'3612.7
2015-Jul-19 23:32N 35°45' W 026°03'3812.8
2015-Jul-19 20:31N 35°44' W 025°16'1412.5
2015-Jul-19 19:24N 35°43' W 024°59'1112.4
2015-Jul-19 18:33N 35°42' W 024°46'1312.7
2015-Jul-19 17:34N 35°42' W 024°30'1312.6
2015-Jul-19 16:33N 35°41' W 024°15'1312.9
2015-Jul-19 15:33N 35°40' W 023°59'1312.8
2015-Jul-19 14:34N 35°39' W 023°43'1312.6
2015-Jul-19 13:34N 35°38' W 023°28'  

Dump ship's entire track history